Tiempo atmosférico en la estación meteorológica de Granada Aeropuerto, Granada (567 m.)



Fecha
DESCASC
Temp. máxima en grados centígrados (hora)
DESCASC
Temp. mínima en grados centígrados (hora)
DESCASC
Temp. media en grados centígrados
DESCASC
Racha de viento máxima en m/sg (hora)
DESCASC
Velocidad máxima media en intervalos de 10 minutos(hora)
DESCASC
Precipitaciones diarias en mm
DESCASC
Precipitaciones de 00:00 a 06:00 en mm
DESCASC
Precipitaciones de 06:00 a 12:00 en mm
DESCASC
Precipitaciones de 12:00 a 18:00 en mm
DESCASC
Precipitaciones de 18:00 a 24:00 en mm
DESCASC
10-11-2019 12.9 (13:40) 6.5 (00:00) 9.7 12.78 (20:10) 8.06 (12:00) 0 0 0 0 0
09-11-2019 15.7 (15:00) -2.3 (-00:0) 6.7 7.22 (15:30) 4.72 (17:00) 0 0 0 0 0
08-11-2019 12.7 (14:20) 1 (00:00) 6.8 8.89 (13:00) 5.28 (13:00) 0 0 0 0 0
07-11-2019 14.2 (16:20) 2.2 (00:00) 8.2 5.83 (16:20) 3.89 (16:40) 0.8 0 0.1 0.7 0
06-11-2019 16.4 (15:40) 5 (00:00) 10.7 9.17 (17:00) 6.67 (17:10) 0 0 0 0 0
05-11-2019 15.1 (14:00) 9.6 (00:00) 12.4 13.33 (03:50) 9.17 (03:40) 0.5 0.4 0.1 0 0
04-11-2019 19.2 (14:20) 13.6 (00:00) 16.4 10.83 (13:50) 6.94 (13:40) 0 0 0 0 0
03-11-2019 18.3 (15:30) 13.8 (00:00) 16 11.39 (13:40) 7.5 (13:00) 0.1 0 0.1 0 0
02-11-2019 20.4 (14:50) 14.7 (00:00) 17.5 11.67 (15:30) 7.78 (15:30) 3.6 0.6 2.6 0.4 0
01-11-2019 23.2 (13:00) 13.8 (00:00) 18.5 9.72 (13:10) 5.56 (12:40) 0.7 0 0 0 0.7
31-10-2019 24 (14:30) 11.3 (06:40) 17.7 9.17 (16:40) 6.11 (16:40) 0 0 0 0 0
30-10-2019 24 (16:10) 7.1 (00:00) 15.5 7.22 (15:10) 4.72 (15:00) 0 0 0 0 0
29-10-2019 23.4 (16:00) 6.8 (00:00) 15.1 6.67 (15:10) 3.89 (17:10) 0 0 0 0 0
28-10-2019 24.4 (15:40) 7.9 (00:00) 16.1 6.11 (18:30) 3.61 (18:30) 0 0 0 0 0
27-10-2019 26.6 (16:50) 5.4 (00:00) 16 7.78 (19:20) 4.72 (19:20) 0 0 0 0 0
26-10-2019 26.9 (17:10) 4.2 (00:00) 15.5 5.83 (19:40) 2.78 (20:30) 0 0 0 0 0
25-10-2019 25.3 (16:50) 3.6 (00:00) 14.4 5 (20:10) 3.89 (20:10) 0 0 0 0 0
24-10-2019 18.4 (17:30) 8.9 (00:00) 13.6 7.22 (03:30) 5 (03:30) 0.1 0.1 0 0 0
23-10-2019 13.8 (12:40) 7 (00:00) 10.4 10.83 (17:10) 7.22 (17:00) 3.4 0 0 1.5 1.9
22-10-2019 18.1 (16:20) 7.6 (00:00) 12.9 9.17 (17:00) 6.11 (17:30) 5.6 0 0 0 5.6
21-10-2019 19.2 (17:10) 2.9 (00:00) 11.1 6.67 (20:40) 3.89 (17:50) 0 0 0 0 0
20-10-2019 19 (00:20) 7.1 (00:00) 13 12.5 (03:00) 8.33 (03:10) 7.8 7.1 0.7 0 0
19-10-2019 24 (16:10) 10.7 (00:00) 17.3 10.28 (14:30) 6.67 (14:30) 0 0 0 0 0
18-10-2019 26.2 (17:10) 5.3 (00:00) 15.8 8.89 (18:10) 6.11 (18:10) 0 0 0 0 0
17-10-2019 24.7 (17:30) 3.1 (00:00) 13.9 6.11 (18:30) 4.72 (18:30) 0 0 0 0 0
16-10-2019 24.3 (17:20) 2.5 (00:00) 13.4 4.72 (15:10) 3.89 (20:40) 0 0 0 0 0
15-10-2019 21.4 (16:30) 6.6 (00:00) 14 9.17 (00:20) 6.11 (00:20) 0 0 0 0 0
14-10-2019 24 (05:20) 15.2 (00:00) 19.6 13.89 (18:00) 8.61 (18:00) 0 0 0 0 0

Gráficas

Temp. máximas Temp. mínimas Temp. medias Precipitaciones Rachas de viento máximas Velocidades máximas media en intervalos de 10 minutos

Datos horarios

Fecha y hora oficial Temperatura (ºC) Velocidad del viento (km/h) Dirección del viento Racha (km/h) Dirección de racha Precipitación (mm) Presión (hPa) Tendencia (hPa) Humedad (%)
2019-11-12 23:00:00 6.1 0 Calma 5 Sur 0 950.2 0.5 85
2019-11-12 22:00:00 6.8 3 Sur 18 Sudoeste 0 950.2 0.9 82
2019-11-12 21:00:00 8.1 2 Sur 11 Sudoeste 0 949.8 1.3 74
2019-11-12 20:00:00 10.7 3 Oeste 13 Norte 0 949.7 1.7 64
2019-11-12 19:00:00 11.1 4 Sudoeste 30 Noroeste 0 949.3 1.4 60
2019-11-12 18:00:00 12.9 20 Noroeste 28 Noroeste 0 948.5 0.3 53
2019-11-12 17:00:00 15 15 Noroeste 35 Noroeste 0 948 -0.7 46
2019-11-12 16:00:00 15.5 22 Noroeste 33 Noroeste 0 947.9 -1.5 46
2019-11-12 15:00:00 16.4 20 Norte 28 Norte 0 948.2 -1.8 42
2019-11-12 14:00:00 16.7 16 Noroeste 24 Norte 0 948.7 -1.7 45
2019-11-12 13:00:00 15.9 6 Oeste 17 Oeste 0 949.4 -0.9 46
2019-11-12 12:00:00 13.8 5 Noroeste 15 Oeste 0 950 0 56
2019-11-12 11:00:00 10.6 3 Oeste 11 Norte 0 950.4 0.9 80
2019-11-12 10:00:00 7.8 0 Calma 5 Noroeste 0 950.3 1.4 96
2019-11-12 09:00:00 4.2 5 Oeste 11 Oeste 0 950 0 98
2019-11-12 08:00:00 1.6 0 Calma 5 Oeste 0 949.5 0.1 98
2019-11-12 07:00:00 3 0 Calma 13 Sur 0 948.9 -0.6 98
2019-11-12 06:00:00 3.3 3 Sudeste 11 Este 0 950 0.2 98
2019-11-12 05:00:00 4.5 0 Calma 11 Oeste 0 949.4 -0.4 97
2019-11-12 04:00:00 5.4 6 Oeste 11 Oeste 0 949.5 -0.7 97
2019-11-12 03:00:00 5.9 8 Sudoeste 18 Oeste 0 949.8 -0.9 97
2019-11-12 02:00:00 6.4 8 Sudoeste 17 Sudoeste 0 949.8 -1.3 97
2019-11-12 01:00:00 5.8 10 Sur 15 Sudoeste 0 950.2 -0.6 97
2019-11-12 00:00:00 6.5 8 Oeste 13 Oeste 0 950.7 0 96
2019-11-11 23:00:00 6.8 4 Noroeste 8 Noroeste 0 951.1 0.5 94
2019-11-11 22:00:00 8.5 5 Sudoeste 13 Sur 0 950.8 0.1 89
2019-11-11 21:00:00 9.4 0 Calma 9 Sudoeste 0 950.7 0.2 87
2019-11-11 20:00:00 10.7 6 Norte 21 Norte 0 950.6 0.8 82
2019-11-11 19:00:00 11.2 13 Norte 26 Noroeste 0 950.7 1.1 77
2019-11-11 18:00:00 11.3 18 Noroeste 37 Noroeste 0 950.5 0.4 76
2019-11-11 17:00:00 12.2 18 Noroeste 28 Noroeste 0 949.8 -0.8 68
2019-11-11 16:00:00 12.5 7 Noroeste 21 Oeste 0 949.6 -2.1 64
2019-11-11 15:00:00 12.4 10 Sudoeste 18 Oeste 0 950.1 -1.8 59
2019-11-11 14:00:00 12.4 6 Oeste 15 Oeste 0 950.6 -2.1 55
2019-11-11 13:00:00 11.9 3 Oeste 13 Norte 0 951.7 -1.2 55
2019-11-11 12:00:00 10.8 4 Noroeste 11 Norte 0 951.9 -1.3 59
2019-11-11 11:00:00 8.8 5 Oeste 11 Oeste 0 952.7 0.2 74
2019-11-11 10:00:00 6.5 0 Calma 4 Norte 0 952.9 0.7 88
2019-11-11 09:00:00 4 0 Calma 5 Oeste 0 953.2 0.9 94
2019-11-11 08:00:00 2.7 2 Oeste 4 Oeste 0 952.5 0.3 93
2019-11-11 07:00:00 2.8 0 Calma 8 Este 0 952.2 0.1 92
2019-11-11 06:00:00 3.9 3 Oeste 13 Oeste 0 952.3 -0.7 89
2019-11-11 05:00:00 4.3 0 Calma 11 Este 0 952.2 -0.7 86
2019-11-11 04:00:00 5.2 6 Este 15 Este 0 952.1 -0.8 82
2019-11-11 03:00:00 6.9 9 Noroeste 18 Noroeste 0 953 0 79
2019-11-11 02:00:00 7.5 13 Noroeste 18 Noroeste 0 952.9 -0.2 74
2019-11-11 01:00:00 8.4 9 Noroeste 24 Noroeste 0 952.9 0.1 70
2019-11-11 00:00:00 9 8 Noroeste 21 Noroeste 0 953 0.5 67
2019-11-10 23:00:00 9.1 8 Noroeste 17 Norte 0 953.1 0.8 65
2019-11-10 22:00:00 9.2 6 Noroeste 32 Noroeste 0 952.8 0.5 64
2019-11-10 21:00:00 9.4 18 Noroeste 46 Norte 0 952.5 0.6 61
2019-11-10 20:00:00 9.3 18 Noroeste 35 Noroeste 0 952.3 0.6 59
2019-11-10 19:00:00 9.8 10 Noroeste 35 Norte 0 952.3 0.7 60
2019-11-10 18:00:00 10.4 15 Noroeste 35 Noroeste 0 951.9 0.3 57
2019-11-10 17:00:00 11.5 19 Noroeste 32 Norte 0 951.7 -0.2 52
2019-11-10 16:00:00 11.9 21 Norte 32 Norte 0 951.6 0 53
2019-11-10 15:00:00 11.9 18 Norte 28 Norte 0 951.6 -0.5 55
2019-11-10 14:00:00 12.6 19 Noroeste 35 Noroeste 0 951.9 -0.6 53
2019-11-10 13:00:00 11.8 20 Noroeste 42 Noroeste 0 951.6 -0.9 58
2019-11-10 12:00:00 11.2 29 Noroeste 42 Noroeste 0 952.1 -0.2 62
2019-11-10 11:00:00 11 24 Noroeste 41 Noroeste 0 952.5 1 65
2019-11-10 10:00:00 10.4 25 Noroeste 35 Noroeste 0 952.5 1.4 69
2019-11-10 09:00:00 10 22 Norte 32 Noroeste 0 952.3 1.1 71
2019-11-10 08:00:00 7.6 5 Sudoeste 17 Sur 0 951.5 -0.2 96
2019-11-10 07:00:00 6.6 0 Calma 5 Norte 0 951.1 -1.1 96
2019-11-10 06:00:00 7 0 Calma 8 Sur 0 951.2 -1.3 94
2019-11-10 05:00:00 7.6 0 Calma 8 Nordeste 0 951.7 -1.4 93
2019-11-10 04:00:00 8 0 Calma 11 Sudeste 0 952.2 -1.3 91
2019-11-10 03:00:00 8.1 4 Sudeste 8 Sudeste 0 952.5 -1.7 92
2019-11-10 02:00:00 8.4 2 Sudeste 8 Sudoeste 0 953.1 -1.8 85
2019-11-10 01:00:00 8.6 4 Sur 11 Noroeste 0 953.5 -1.5 76
2019-11-10 00:00:00 8.3 3 Norte 9 Este 0 954.2 -0.8 77
2019-11-09 23:00:00 7.9 0 Calma 8 Sudeste 0 954.9 -0.4 75
2019-11-09 22:00:00 6.9 5 Sudoeste 15 Sudoeste 0 955 -0.3 75
2019-11-09 21:00:00 8 8 Sur 11 Sur 0 955 0.3 69
2019-11-09 20:00:00 9.2 6 Sudoeste 17 Oeste 0 955.3 1 62
2019-11-09 19:00:00 10.2 11 Sudoeste 17 Oeste 0 955.3 0.8 57
2019-11-09 18:00:00 12 15 Oeste 22 Oeste 0 954.7 -0.1 51
2019-11-09 17:00:00 14.2 17 Oeste 22 Oeste 0 954.3 -1.2 48
2019-11-09 16:00:00 15.5 9 Sudoeste 26 Sudoeste 0 954.5 -1.8 41
2019-11-09 15:00:00 15.5 6 Sudoeste 17 Sudoeste 0 954.8 -2.3 41
2019-11-09 14:00:00 14.1 8 Oeste 18 Oeste 0 955.5 -2 45
2019-11-09 13:00:00 12.5 7 Oeste 15 Oeste 0 956.3 -1.4 48
2019-11-09 12:00:00 9.3 6 Oeste 15 Noroeste 0 957.1 -0.8 63
2019-11-09 11:00:00 5.8 6 Noroeste 13 Noroeste 0 957.5 0.2 82
2019-11-09 10:00:00 2.6 0 Calma 5 Noroeste 0 957.7 1.3 92
2019-11-09 09:00:00 0.1 0 Calma 5 Norte 0 957.9 1.7 95
2019-11-09 08:00:00 -2.2 0 Calma 5 Oeste 0 957.3 1.1 95
2019-11-09 07:00:00 -1.9 2 Sudoeste -- -- 0 956.4 0 95
2019-11-09 06:00:00 -1.6 0 Calma 4 Sur 0 956.2 -0.4 95
2019-11-09 05:00:00 -0.9 0 Calma 8 Sudoeste 0 956.2 -0.5 96
2019-11-09 04:00:00 -0.3 3 Sudoeste 11 Sudoeste 0 956.4 -0.5 95
2019-11-09 03:00:00 -0.4 4 Sudoeste 8 Sudoeste 0 956.6 -0.5 95
2019-11-09 02:00:00 0.3 0 Calma 5 Oeste 0 956.7 0 95
2019-11-09 01:00:00 0.6 3 Sudoeste 8 Sudoeste 0 956.9 0.7 93
2019-11-09 00:00:00 1.2 0 Calma 5 Sudoeste 0 957.1 1.5 93
2019-11-08 23:00:00 2.4 0 Calma 8 Este 0 956.7 1.5 91
2019-11-08 22:00:00 3.5 0 Calma 8 Este 0 956.2 1.7 87
2019-11-08 21:00:00 4.6 3 Este 13 Sudoeste 0 955.6 2 84
2019-11-08 20:00:00 5 8 Sur 18 Sudoeste 0 955.2 2.2 83
2019-11-08 19:00:00 8 3 Sudoeste 15 Oeste 0 954.5 1.9 68
2019-11-08 18:00:00 10.7 6 Norte 18 Noroeste 0 953.6 1.4 50
2019-11-08 17:00:00 12.3 5 Noroeste 22 Noroeste 0 953 0.9 45
2019-11-08 16:00:00 11.8 14 Noroeste 28 Noroeste 0 952.6 0.4 48
2019-11-08 15:00:00 12.2 13 Norte 28 Noroeste 0 952.2 -0.4 43
2019-11-08 14:00:00 11.9 16 Noroeste 32 Noroeste 0 952.1 -0.5 47
2019-11-08 13:00:00 11.5 19 Noroeste 32 Noroeste 0 952.2 -0.2 51
2019-11-08 12:00:00 10.3 9 Sudoeste 21 Sudoeste 0 952.6 0.9 67
2019-11-08 11:00:00 8.7 8 Nordeste 21 Oeste 0 952.6 1.7 75
2019-11-08 10:00:00 6.7 0 Calma 13 Sur 0 952.4 2.2 91
2019-11-08 09:00:00 3.4 2 Sur 13 Sur 0 951.7 1.9 96
2019-11-08 08:00:00 2.4 2 Sudeste 13 Sudoeste 0 950.9 1.1 96
2019-11-08 07:00:00 2.3 8 Sur 13 Sur 0 950.2 0.4 97
2019-11-08 06:00:00 2.5 6 Sur 8 Sur 0 949.8 0.1 96
2019-11-08 05:00:00 2.6 0 Calma 5 Sur 0 949.8 -0.2 95
2019-11-08 04:00:00 2.6 4 Sur 8 Oeste 0 949.8 -0.6 94
2019-11-08 03:00:00 3.4 0 Calma 9 Oeste 0 949.7 -1.1 93
2019-11-08 02:00:00 4.9 0 Calma 8 Sur 0 950 -0.5 88
2019-11-08 01:00:00 7.2 2 Este 17 Este 0 950.4 0.6 80
2019-11-08 00:00:00 7 8 Oeste 17 Oeste 0 950.8 1.3 89
2019-11-07 23:00:00 7.1 0 Calma 13 Noroeste 0 950.5 1.6 92
2019-11-07 22:00:00 8.3 6 Norte 13 Norte 0 949.8 1.3 87
2019-11-07 21:00:00 8.9 7 Sudoeste 17 Oeste 0 949.5 1.5 91
2019-11-07 20:00:00 9.3 12 Oeste 15 Oeste 0 948.9 0.8 90
2019-11-07 19:00:00 11.3 9 Oeste 15 Sudoeste 0 948.5 0.9 90
2019-11-07 18:00:00 13.7 3 Noroeste 13 Nordeste 0 948 0 82
2019-11-07 17:00:00 13.7 5 Norte 21 Oeste 0 948.1 -0.1 89
2019-11-07 16:00:00 13.5 5 Oeste 13 Noroeste 0 947.6 -1.3 88
2019-11-07 15:00:00 12.7 0 Calma 8 Oeste 0.1 948 -1.6 91
2019-11-07 14:00:00 11.5 2 Norte 5 Norte 0.5 948.2 -1.8 93
2019-11-07 13:00:00 10.7 0 Calma 8 Oeste 0.1 948.9 -1.1 93
2019-11-07 12:00:00 9.1 0 Calma 5 Sudoeste 0.1 949.6 -0.5 93
2019-11-07 11:00:00 7.9 0 Calma 4 Norte 0 950 0.1 94
2019-11-07 10:00:00 6.5 0 Calma 4 Norte 0 950 0 92
2019-11-07 09:00:00 5 0 Calma 8 Sur 0 950.1 0.1 96
2019-11-07 08:00:00 2.9 0 Calma 5 Sur 0 949.9 0 96
2019-11-07 07:00:00 2.5 0 Calma 4 Sudeste 0 950 0 95
2019-11-07 06:00:00 3.3 0 Calma 5 Oeste 0 950 -0.2 95
2019-11-07 05:00:00 3.5 6 Oeste 8 Oeste 0 949.9 -0.7 95
2019-11-07 04:00:00 3.4 0 Calma 5 Oeste 0 950 -1.1 95
2019-11-07 03:00:00 3.7 2 Oeste 4 Oeste 0 950.2 -1 94
2019-11-07 02:00:00 3.8 2 Este 4 Este 0 950.6 -0.7 92
2019-11-07 01:00:00 4.5 0 Calma 5 Sudoeste 0 951.1 -0.4 93
2019-11-07 00:00:00 5.2 0 Calma 8 Sudoeste 0 951.2 -0.1 92
2019-11-06 23:00:00 6.2 5 Sudoeste 8 Sudoeste 0 951.3 -0.2 89
2019-11-06 22:00:00 6.8 0 Calma 13 Sur 0 951.5 0.5 87
2019-11-06 21:00:00 7.7 4 Sur 8 Sur 0 951.3 0.9 82
2019-11-06 20:00:00 10.1 2 Noroeste 15 Noroeste 0 951.5 1.5 70
2019-11-06 19:00:00 11.6 9 Norte 21 Norte 0 951 1.1 62
2019-11-06 18:00:00 12.9 14 Norte 33 Noroeste 0 950.4 0.5 55
2019-11-06 17:00:00 14.5 22 Noroeste 33 Noroeste 0 950 -0.5 50
2019-11-06 16:00:00 15.2 15 Norte 26 Norte 0 949.9 -1.4 47
2019-11-06 15:00:00 15.2 10 Noroeste 22 Norte 0 949.9 -2.1 49
2019-11-06 14:00:00 15.5 10 Oeste 22 Oeste 0 950.5 -2 50
2019-11-06 13:00:00 15 12 Oeste 22 Oeste 0 951.3 -1.3 56
2019-11-06 12:00:00 13.5 12 Noroeste 18 Noroeste 0 952 -0.4 63
2019-11-06 11:00:00 11.3 2 Oeste 8 Oeste 0 952.5 0.7 81
2019-11-06 10:00:00 8.4 0 Calma 5 Este 0 952.6 1 98
2019-11-06 09:00:00 6.5 4 Norte 13 Noroeste 0 952.4 1.1 97
2019-11-06 08:00:00 5.8 4 Sudoeste 8 Sudoeste 0 951.8 0.6 97
2019-11-06 07:00:00 6.2 0 Calma 5 Sudoeste 0 951.6 0.3 97
2019-11-06 06:00:00 6.1 0 Calma 8 Sudoeste 0 951.3 -0.4 96
2019-11-06 05:00:00 7.2 0 Calma 8 Sur 0 951.2 -0.5 96
2019-11-06 04:00:00 7.2 7 Sur 13 Sur 0 951.3 -0.9 95
2019-11-06 03:00:00 7.2 3 Sur 5 Sur 0 951.7 -0.4 94
2019-11-06 02:00:00 9 3 Este 13 Oeste 0 951.7 -0.3 91
2019-11-06 01:00:00 10 14 Oeste 21 Oeste 0 952.2 0.5 90
2019-11-06 00:00:00 11.2 12 Oeste 21 Oeste 0 952.1 1 87
2019-11-05 23:00:00 11.6 15 Oeste 22 Oeste 0 952 1.2 82
2019-11-05 22:00:00 10.4 5 Sudoeste 15 Sur 0 951.7 1.1 84
2019-11-05 21:00:00 10.8 8 Sur 15 Sudoeste 0 951.1 1.1 81
2019-11-05 20:00:00 11.8 9 Sudoeste 15 Sudoeste 0 950.8 1 78
2019-11-05 19:00:00 12.3 13 Sudoeste 26 Sur 0 950.6 0.7 74
2019-11-05 18:00:00 13.6 10 Sudoeste 18 Oeste 0 950 0.1 68
2019-11-05 17:00:00 13.8 5 Sudoeste 22 Oeste 0 949.8 0 65
2019-11-05 16:00:00 13.6 11 Oeste 22 Oeste 0 949.9 -0.2 61
2019-11-05 15:00:00 13.9 14 Norte 32 Norte 0 949.9 -0.9 57
2019-11-05 14:00:00 14.7 20 Norte 33 Norte 0 949.8 -1 52
2019-11-05 13:00:00 13.9 9 Noroeste 24 Norte 0 950.1 -0.5 55
2019-11-05 12:00:00 13.4 10 Norte 24 Noroeste 0.1 950.8 0.6 57
2019-11-05 11:00:00 13.6 9 Noroeste 24 Noroeste 0 950.8 1.4 61
2019-11-05 10:00:00 12.5 10 Oeste 17 Noroeste 0 950.6 1.7 72
2019-11-05 09:00:00 10.3 5 Oeste 18 Oeste 0 950.2 1.8 91
2019-11-05 08:00:00 10.3 12 Oeste 17 Oeste 0 949.4 1.7 94
2019-11-05 07:00:00 10.8 13 Oeste 28 Oeste 0 948.9 1.9 90
2019-11-05 06:00:00 11.5 16 Oeste 24 Sudoeste 0 948.4 1.4 93
2019-11-05 05:00:00 11.5 16 Oeste 42 Oeste 0.2 947.7 -0.1 93
2019-11-05 04:00:00 12.5 31 Oeste 48 Oeste 0.2 947 -1.5 93
2019-11-05 03:00:00 13.4 5 Oeste 17 Oeste 0 947 -1.6 90
2019-11-05 02:00:00 14.3 0 Calma 18 Sudoeste 0 947.8 -1.1 79
2019-11-05 01:00:00 14.3 15 Oeste 33 Oeste 0 948.5 -0.7 79
2019-11-05 00:00:00 13.9 13 Oeste 18 Oeste 0 948.6 -0.6 80
2019-11-04 23:00:00 14.3 8 Oeste 28 Sudoeste 0 948.9 -0.6 78
2019-11-04 22:00:00 14.7 8 Oeste 18 Sudoeste 0 949.2 -0.1 77
2019-11-04 21:00:00 14.9 7 Sudoeste 22 Oeste 0 949.2 0.4 76
2019-11-04 20:00:00 15.5 5 Oeste 18 Sudoeste 0 949.5 0.8 71
2019-11-04 19:00:00 15.8 11 Oeste 24 Oeste 0 949.3 0.2 69
2019-11-04 18:00:00 16.3 16 Oeste 35 Noroeste 0 948.8 -0.9 68
2019-11-04 17:00:00 17 16 Oeste 26 Oeste 0 948.7 -1.3 68
2019-11-04 16:00:00 17.1 11 Oeste 30 Oeste 0 949.1 -1.7 70
2019-11-04 15:00:00 17.3 20 Oeste 37 Noroeste 0 949.7 -1.5 70
2019-11-04 14:00:00 18.4 18 Oeste 39 Noroeste 0 950 -1.8 64
2019-11-04 13:00:00 17.9 23 Oeste 37 Oeste 0 950.8 -1.1 70
2019-11-04 12:00:00 16 22 Oeste 33 Oeste 0 951.2 -0.7 84
2019-11-04 11:00:00 14.7 8 Oeste 24 Oeste 0 951.8 0.3 89
2019-11-04 10:00:00 14.7 11 Oeste 17 Sudoeste 0 951.9 0.7 89
2019-11-04 09:00:00 14 9 Sudoeste 18 Sudoeste 0 951.9 0.8 93
2019-11-04 08:00:00 13.6 10 Sudoeste 22 Oeste 0 951.5 0.7 94
2019-11-04 07:00:00 13.9 11 Sudoeste 24 Oeste 0 951.2 -0.4 93
2019-11-04 06:00:00 14.9 16 Oeste 26 Oeste 0 951.1 -1.1 87
2019-11-04 05:00:00 15 9 Sudoeste 13 Oeste 0 950.8 -1.2 88
2019-11-04 04:00:00 15.2 0 Calma 15 Oeste 0 951.6 -0.8 86
2019-11-04 03:00:00 15.1 4 Oeste 17 Oeste 0 952.2 -0.2 88
2019-11-04 02:00:00 14.8 7 Oeste 15 Oeste 0 952 -0.1 89
2019-11-04 01:00:00 15.3 5 Oeste 30 Oeste 0 952.4 0.8 89
2019-11-04 00:00:00 16.1 16 Oeste 26 Oeste 0 952.4 1.7 83
2019-11-03 23:00:00 16.3 15 Oeste 24 Oeste 0 952.1 1.8 81
2019-11-03 22:00:00 16 12 Oeste 22 Oeste 0 951.6 2.2 83
2019-11-03 21:00:00 16.5 16 Oeste 26 Oeste 0 950.7 2 81
2019-11-03 20:00:00 16.6 14 Sudoeste 22 Sudoeste 0 950.3 1.9 82
2019-11-03 19:00:00 16.7 13 Sudoeste 21 Sudoeste 0 949.4 1.6 80
2019-11-03 18:00:00 17.2 16 Oeste 28 Oeste 0 948.7 0.9 77
2019-11-03 17:00:00 17.7 20 Oeste 30 Oeste 0 948.4 0.4 74
2019-11-03 16:00:00 18.1 15 Oeste 33 Oeste 0 947.8 -0.3 71
2019-11-03 15:00:00 17.8 21 Oeste 41 Oeste 0 947.8 -0.5 73
2019-11-03 14:00:00 17 26 Oeste 41 Oeste 0 948 -0.6 76
2019-11-03 13:00:00 15.5 27 Oeste 37 Oeste 0 948.1 0.1 81
2019-11-03 12:00:00 15.2 17 Oeste 28 Oeste 0 948.3 0.8 80
2019-11-03 11:00:00 14.7 19 Oeste 30 Oeste 0 948.6 1.9 81
2019-11-03 10:00:00 13.9 15 Oeste 33 Oeste 0.1 948 1.9 87
2019-11-03 09:00:00 14.4 13 Sudoeste 33 Oeste 0 947.5 1.4 81
2019-11-03 08:00:00 14.8 16 Oeste 30 Oeste 0 946.7 0.8 86
2019-11-03 07:00:00 14.8 21 Oeste 33 Oeste 0 946.1 0.2 89
2019-11-03 06:00:00 14.9 15 Sudoeste 30 Oeste 0 946.1 -0.1 90
2019-11-03 05:00:00 15.2 18 Oeste 35 Sudoeste 0 945.9 -0.6 91
2019-11-03 04:00:00 15 14 Oeste 33 Oeste 0 945.9 -1.1 90
2019-11-03 03:00:00 14.9 15 Oeste 26 Oeste 0 946.2 -0.9 91
2019-11-03 02:00:00 15 12 Oeste 24 Oeste 0 946.5 -1.2 91
2019-11-03 01:00:00 15.5 14 Oeste 30 Oeste 0 947 -0.8 86
2019-11-03 00:00:00 15.8 14 Oeste 32 Oeste 0 947.1 -0.5 83
2019-11-02 23:00:00 16.1 20 Oeste 30 Oeste 0 947.7 -0.4 81
2019-11-02 22:00:00 15.9 10 Oeste 30 Oeste 0 947.8 -0.2 82
2019-11-02 21:00:00 16.7 21 Oeste 32 Oeste 0 947.6 -0.2 77
2019-11-02 20:00:00 16.1 10 Sudoeste 22 Oeste 0 948.1 0.3 83
2019-11-02 19:00:00 17.5 16 Oeste 26 Sudoeste 0 948 -0.1 78
2019-11-02 18:00:00 18.1 17 Oeste 28 Noroeste 0 947.8 -0.8 76
2019-11-02 17:00:00 18.9 15 Sudoeste 35 Oeste 0 947.8 -1.6 75
2019-11-02 16:00:00 19.5 21 Oeste 42 Oeste 0 948.1 -2.3 69
2019-11-02 15:00:00 20 22 Oeste 41 Oeste 0 948.6 -2.3 70
2019-11-02 14:00:00 19.2 20 Oeste 35 Oeste 0.2 949.4 -1.6 79
2019-11-02 13:00:00 17.2 14 Oeste 30 Oeste 0.2 950.4 -1.1 89
2019-11-02 12:00:00 17.4 21 Oeste 35 Oeste 0 950.9 -0.6 86
2019-11-02 11:00:00 17.7 15 Oeste 22 Oeste 0 951 -0.3 88
2019-11-02 10:00:00 17.8 14 Oeste 22 Oeste 0.3 951.5 -0.3 90
2019-11-02 09:00:00 16.1 0 Calma 15 Sur 2.3 951.5 -0.7 94
2019-11-02 08:00:00 16.1 5 Sur 13 Sur 0 951.3 -1.3 92
2019-11-02 07:00:00 16.3 6 Sur 17 Sudoeste 0 951.8 -1.4 91
2019-11-02 06:00:00 16.2 8 Sudoeste 15 Sudoeste 0 952.2 -1.7 92
2019-11-02 05:00:00 15.8 6 Oeste 15 Oeste 0 952.6 -1.6 94
2019-11-02 04:00:00 16 0 Calma 15 Oeste 0.6 953.2 -1.6 96
2019-11-02 03:00:00 14.9 0 Calma 5 Sur 0 953.9 -1.5 96
2019-11-02 02:00:00 15.8 0 Calma 5 Sudoeste 0 954.2 -1.6 95
2019-11-02 01:00:00 16.6 2 Sur 8 Oeste 0 954.8 -0.9 92
2019-11-02 00:00:00 17.7 0 Calma 8 Sudeste 0 955.4 -0.5 89
2019-11-01 23:00:00 18 2 Sur 21 Sudoeste 0 955.8 0.1 89
2019-11-01 22:00:00 18.1 0 Calma 13 Oeste 0 955.7 0 90
2019-11-01 21:00:00 18.1 7 Sudoeste 13 Sudoeste 0.7 955.9 0.3 89
2019-11-01 20:00:00 19.3 5 Sudoeste 11 Sudoeste 0 955.7 0.1 77
2019-11-01 19:00:00 19.7 7 Sur 18 Sur 0 955.7 -0.2 75
2019-11-01 18:00:00 20.3 10 Oeste 22 Oeste 0 955.6 -0.6 72
2019-11-01 17:00:00 21 12 Oeste 17 Oeste 0 955.6 -1.2 68
2019-11-01 16:00:00 21.6 12 Oeste 21 Norte 0 955.9 -1.1 64
2019-11-01 15:00:00 21.5 10 Norte 28 Noroeste 0 956.2 -1.6 61
2019-11-01 14:00:00 22.1 17 Noroeste 35 Norte 0 956.8 -1.3 61
2019-11-01 13:00:00 23.1 19 Noroeste 32 Norte 0 957 -1.4 55
2019-11-01 12:00:00 21.2 15 Noroeste 30 Noroeste 0 957.8 -0.6 63
2019-11-01 11:00:00 20.5 7 Noroeste 18 Noroeste 0 958.1 0.1 72
2019-11-01 10:00:00 17.9 5 Sudeste 15 Sudeste 0 958.4 0.3 83
2019-11-01 09:00:00 15.1 0 Calma 11 Sur 0 958.4 0.2 96
2019-11-01 08:00:00 14.2 2 Sudoeste 5 Sudoeste 0 958 0 96
2019-11-01 07:00:00 14 3 Oeste 8 Sudoeste 0 958.1 -0.1 95
2019-11-01 06:00:00 15 3 Noroeste 5 Este 0 958.2 -0.3 93
2019-11-01 05:00:00 15.5 3 Este 11 Sudeste 0 958 -0.8 93
2019-11-01 04:00:00 15.5 4 Sudeste 5 Sudeste 0 958.2 -0.7 94
2019-11-01 03:00:00 15.3 0 Calma 4 Sudeste 0 958.5 -0.7 88
2019-11-01 02:00:00 15.3 0 Calma 5 Oeste 0 958.8 -0.7 88
2019-11-01 01:00:00 15.2 0 Calma 8 Norte 0 958.9 -0.7 87
2019-11-01 00:00:00 15.9 4 Sur 8 Sur 0 959.2 -0.3 83
2019-10-31 23:00:00 15.5 0 Calma 8 Noroeste 0 959.5 0.3 85
2019-10-31 22:00:00 16.1 4 Sudoeste 13 Sudoeste 0 959.6 1.1 80
2019-10-31 21:00:00 16.8 5 Sur 8 Sur 0 959.5 1.5 77
2019-10-31 20:00:00 19.1 5 Noroeste 21 Noroeste 0 959.2 1.6 68
2019-10-31 19:00:00 19.8 0 Calma 15 Sur 0 958.5 1 64
2019-10-31 18:00:00 20.4 10 Noroeste 22 Noroeste 0 958 0.6 62
2019-10-31 17:00:00 21.8 15 Noroeste 33 Noroeste 0 957.6 -0.5 56
2019-10-31 16:00:00 22.7 17 Noroeste 30 Noroeste 0 957.5 -1.2 54
2019-10-31 15:00:00 23.5 15 Noroeste 32 Noroeste 0 957.4 -1.8 50
2019-10-31 14:00:00 23 18 Noroeste 32 Noroeste 0 958.1 -1.4 51
2019-10-31 13:00:00 22.2 6 Noroeste 18 Oeste 0 958.7 -1.1 58
2019-10-31 12:00:00 21 4 Oeste 13 Sudoeste 0 959.2 -0.2 63
2019-10-31 11:00:00 18.3 3 Noroeste 11 Noroeste 0 959.5 0.4 74
2019-10-31 10:00:00 15.8 0 Calma 5 Noroeste 0 959.8 1.3 81
2019-10-31 09:00:00 13.4 0 Calma 2 Noroeste 0 959.4 0.8 90
2019-10-31 08:00:00 12 2 Oeste 8 Norte 0 959.1 0.8 95
2019-10-31 07:00:00 11.4 3 Sur 5 Sudoeste 0 958.5 0.1 94
2019-10-31 06:00:00 11.8 0 Calma 2 Oeste 0 958.6 0.1 92
2019-10-31 05:00:00 11.7 0 Calma 5 Sudoeste 0 958.3 -0.3 91
2019-10-31 04:00:00 12.8 0 Calma 4 Sur 0 958.4 -0.4 87
2019-10-31 03:00:00 14 0 Calma 4 Este 0 958.5 -0.4 83
2019-10-31 02:00:00 14.2 0 Calma 4 Sur 0 958.6 -0.4 81
2019-10-31 01:00:00 14.7 2 Oeste 4 Oeste 0 958.8 0.1 78
2019-10-31 00:00:00 15.2 0 Calma 4 Sudeste 0 958.9 0.6 74
2019-10-30 23:00:00 16.2 3 Sudoeste 8 Sudoeste 0 959 1.5 69
2019-10-30 22:00:00 16.5 4 Sudoeste 11 Sudoeste 0 958.7 1.9 69
2019-10-30 21:00:00 16.9 0 Calma 8 Oeste 0 958.3 1.8 64
2019-10-30 20:00:00 17.7 6 Oeste 17 Oeste 0 957.5 1.7 60
2019-10-30 19:00:00 18.6 5 Oeste 17 Noroeste 0 956.8 1 55
2019-10-30 18:00:00 20.4 13 Noroeste 24 Noroeste 0 956.5 0.6 51
2019-10-30 17:00:00 23.1 13 Noroeste 24 Oeste 0 955.8 -0.5 39
2019-10-30 16:00:00 23.8 12 Oeste 26 Noroeste 0 955.8 -1.1 37
2019-10-30 15:00:00 23.2 17 Oeste 24 Oeste 0 955.9 -1.7 41
2019-10-30 14:00:00 22.4 8 Oeste 18 Oeste 0 956.3 -1.8 50
2019-10-30 13:00:00 21.4 7 Oeste 15 Noroeste 0 956.9 -1.1 57
2019-10-30 12:00:00 19 0 Calma 9 Sudoeste 0 957.6 0.1 65
2019-10-30 11:00:00 16.2 2 Noroeste 8 Noroeste 0 958.1 1.3 73
2019-10-30 10:00:00 13.2 3 Noroeste 5 Noroeste 0 958 1.5 86
2019-10-30 09:00:00 10.3 0 Calma 5 Sudoeste 0 957.5 1.4 96
2019-10-30 08:00:00 7.6 0 Calma 8 Oeste 0 956.8 1.1 96
2019-10-30 07:00:00 8 0 Calma 4 Sudeste 0 956.5 0.9 96
2019-10-30 06:00:00 8.5 0 Calma -- -- -- 956.1 -0.1 96
2019-10-30 05:00:00 9.3 0 Calma 4 Sudoeste 0 955.7 -0.2 95
2019-10-30 04:00:00 9.5 0 Calma 4 Sudeste 0 955.6 -0.2 94
2019-10-30 03:00:00 9.9 0 Calma 4 Norte 0 956.2 0.5 94
2019-10-30 02:00:00 10.6 4 Sudoeste 8 Sudoeste 0 955.9 0.5 93
2019-10-30 01:00:00 11.1 2 Sur 5 Sudeste 0 955.8 0.9 89
2019-10-30 00:00:00 12.3 0 Calma 11 Sudoeste 0 955.7 1 88
2019-10-29 23:00:00 11.9 8 Oeste 13 Oeste 0 955.4 1.5 91
2019-10-29 22:00:00 14.2 0 Calma 11 Sudoeste 0 954.9 1.6 79
2019-10-29 21:00:00 15.5 9 Sudoeste 15 Sudoeste 0 954.7 2.1 75
2019-10-29 20:00:00 16.5 6 Sudoeste 9 Sudoeste 0 953.9 1.6 71
2019-10-29 19:00:00 18.4 4 Oeste 18 Norte 0 953.3 1.3 65
2019-10-29 18:00:00 20.9 9 Norte 24 Norte 0 952.6 0.3 54
2019-10-29 17:00:00 22.5 14 Norte 22 Norte 0 952.3 -0.2 48
2019-10-29 16:00:00 23.2 10 Oeste 24 Norte 0 952 -1.4 49
2019-10-29 15:00:00 22.5 8 Oeste 17 Oeste 0 952.3 -1.7 50
2019-10-29 14:00:00 21.6 5 Oeste 13 Oeste 0 952.5 -2.1 52
2019-10-29 13:00:00 19.9 2 Norte 11 Norte 0 953.4 -1.4 57
2019-10-29 12:00:00 19 0 Calma 5 Oeste 0 954 -0.1 62
2019-10-29 11:00:00 16.5 0 Calma 4 Sur 0 954.6 1.3 68
2019-10-29 10:00:00 12.6 0 Calma 5 Noroeste 0 954.8 1.9 83
2019-10-29 09:00:00 9 0 Calma 4 Norte 0 954.1 1.3 96
2019-10-29 08:00:00 6.9 0 Calma 8 Sudeste 0 953.3 0.6 96
2019-10-29 07:00:00 7 2 Sudeste 8 Oeste 0 952.9 0.6 96
2019-10-29 06:00:00 7.5 5 Oeste 8 Oeste 0 952.8 0.2 95
2019-10-29 05:00:00 8.6 0 Calma -- -- -- 952.7 -0.1 95
2019-10-29 04:00:00 8.7 4 Sudoeste 8 Oeste 0 952.3 -0.7 96
2019-10-29 03:00:00 9 4 Oeste 8 Oeste 0 952.6 -0.5 94
2019-10-29 02:00:00 9.5 0 Calma -- -- 0 952.8 -0.2 92
2019-10-29 01:00:00 10.3 0 Calma -- -- 0 953 0.2 90
2019-10-29 00:00:00 11.1 0 Calma 5 Sur 0 953.1 0.6 88
2019-10-28 23:00:00 12.7 2 Este -- -- 0 953 0.8 78
2019-10-28 22:00:00 14.1 3 Oeste 15 Oeste 0 952.8 0.9 72
2019-10-28 21:00:00 15.2 11 Sudoeste 18 Sudoeste 0 952.5 0.8 65
2019-10-28 20:00:00 16.8 4 Sudoeste 13 Sur 0 952.2 0.6 52
2019-10-28 19:00:00 18.1 6 Oeste 22 Sudoeste 0 951.9 0 50
2019-10-28 18:00:00 20.8 10 Sudoeste 17 Sur 0 951.7 -0.5 47
2019-10-28 17:00:00 22.8 9 Sudoeste 17 Sudoeste 0 951.6 -1 38
2019-10-28 16:00:00 23.8 10 Sudoeste 18 Oeste 0 951.9 -1.8 33
2019-10-28 15:00:00 22.9 3 Oeste 13 Noroeste 0 952.2 -2.3 38
2019-10-28 14:00:00 22 2 Nordeste 11 Este 0 952.6 -2.3 39
2019-10-28 13:00:00 19.5 0 Calma 8 Oeste 0 953.7 -1.1 54
2019-10-28 12:00:00 16.2 0 Calma 5 Sudoeste 0 954.5 0.3 65
2019-10-28 11:00:00 13.1 3 Oeste 5 Noroeste 0 954.9 1.2 78
2019-10-28 10:00:00 11.8 2 Norte 5 Norte 0 954.8 1.1 87
2019-10-28 09:00:00 10 0 Calma 11 Noroeste 0 954.2 0.8 93
2019-10-28 08:00:00 9.4 2 Oeste 8 Oeste 0 953.7 0.3 93
2019-10-28 07:00:00 8.7 3 Este 4 Sudeste 0 953.7 -0.1 92
2019-10-28 06:00:00 9.4 0 Calma 8 Oeste 0 953.4 -0.5 92
2019-10-28 05:00:00 9.5 0 Calma 8 Sudoeste 0 953.4 -1.2 91
2019-10-28 04:00:00 8.9 4 Sudoeste 5 Sudoeste 0 953.8 -1 93
2019-10-28 03:00:00 8.6 0 Calma 5 Sudeste 0 953.9 -0.8 91
2019-10-28 02:00:00 9.3 4 Sudoeste 9 Sudoeste 0 954.6 -0.4 88
2019-10-28 01:00:00 10.4 2 Sudoeste 5 Sudoeste 0 954.8 -0.1 84
2019-10-28 00:00:00 11 0 Calma 8 Oeste 0 954.7 0.1 85
2019-10-27 23:00:00 11.5 4 Oeste 8 Oeste 0 955 1.1 85
2019-10-27 22:00:00 13.6 3 Sur 15 Este 0 954.9 1.7 80
2019-10-27 21:00:00 14.4 4 Oeste 18 Sudeste 0 954.6 1.7 74
2019-10-27 20:00:00 18.4 15 Sur 28 Sur 0 953.9 1.2 54
2019-10-27 19:00:00 19.3 12 Sur 26 Sur 0 953.2 0.5 54
2019-10-27 18:00:00 22.6 13 Sur 24 Sudeste 0 952.9 -0.3 45
2019-10-27 17:00:00 26 5 Oeste 11 Oeste 0 952.7 -1 32
2019-10-27 16:00:00 26.1 3 Oeste 13 Noroeste 0 952.7 -1.9 30
2019-10-27 15:00:00 24.7 4 Noroeste 9 Noroeste 0 953.2 -2.4 34
2019-10-27 14:00:00 24.8 0 Calma 8 Noroeste 0 953.7 -2.5 34
2019-10-27 13:00:00 21.9 0 Calma 4 Este 0 954.6 -1.7 40
2019-10-27 12:00:00 19.6 0 Calma 5 Noroeste 0 955.6 -0.3 47
2019-10-27 11:00:00 16.4 0 Calma 5 Sudoeste 0 956.2 0.7 57
2019-10-27 10:00:00 11.9 0 Calma 4 Noroeste 0 956.3 1.1 77
2019-10-27 09:00:00 8.8 0 Calma 5 Sudoeste 0 955.9 0.8 89
2019-10-27 08:00:00 5.6 5 Sudoeste 8 Sudoeste 0 955.5 0.9 94
2019-10-27 07:00:00 5.9 0 Calma 2 Norte 0 955.2 0.4 92
2019-10-27 06:00:00 6.6 0 Calma 8 Oeste 0 955.1 -0.2 93
2019-10-27 05:00:00 7.1 6 Sudoeste 11 Oeste 0 954.6 -0.5 93
2019-10-27 04:00:00 6.7 3 Oeste 8 Este 0 954.8 -0.4 92
2019-10-27 03:00:00 7.9 0 Calma 8 Sudoeste 0 955.3 -0.2 91
2019-10-27 02:00:00 8.3 6 Sudoeste -- -- 0 955.1 -0.4 90
2019-10-27 01:00:00 9.6 0 Calma 5 Sudoeste 0 955.5 0.5 86
2019-10-27 00:00:00 10.4 3 Sudoeste 5 Oeste 0 955.5 1 85
2019-10-26 23:00:00 11.6 2 Oeste 5 Oeste 0 955.3 1.5 81
2019-10-26 22:00:00 13.4 0 Calma 8 Sudeste 0 955 1.7 72
2019-10-26 21:00:00 15.9 6 Este 17 Sudoeste 0 954.5 1.4 66
2019-10-26 20:00:00 17.7 4 Sudoeste 21 Sur 0 953.8 0.5 60
2019-10-26 19:00:00 24.6 3 Sudoeste 15 Sudoeste 0 953.3 -0.2 36
2019-10-26 18:00:00 26.5 6 Oeste 17 Oeste 0 953.1 -1.1 24
2019-10-26 17:00:00 26.7 8 Oeste 15 Oeste 0 953.3 -1.8 21
2019-10-26 16:00:00 25.8 4 Oeste 13 Noroeste 0 953.5 -2.4 26
2019-10-26 15:00:00 24.1 0 Calma 5 Noroeste 0 954.2 -2.2 36
2019-10-26 14:00:00 22.4 0 Calma 8 Sur 0 955.1 -1.4 37
2019-10-26 13:00:00 19 0 Calma 4 Oeste 0 955.9 -0.6 50
2019-10-26 12:00:00 15.8 2 Este 8 Este 0 956.4 0.3 55
2019-10-26 11:00:00 11.9 0 Calma 4 Sudoeste 0 956.5 0.9 79
2019-10-26 10:00:00 8.7 0 Calma 11 Sudeste 0 956.5 1.1 91
2019-10-26 09:00:00 4.4 5 Sudeste 11 Sur 0 956.1 0.8 95
2019-10-26 08:00:00 4.9 3 Noroeste 11 Sudoeste 0 955.6 0.2 95
2019-10-26 07:00:00 5.1 3 Sur 5 Sudeste 0 955.4 -0.4 95
2019-10-26 06:00:00 5.4 0 Calma 8 Sudoeste 0 955.3 -0.8 95
2019-10-26 05:00:00 6 4 Sur 5 Sur 0 955.4 -0.9 94
2019-10-26 04:00:00 6.7 0 Calma 4 Sudoeste 0 955.8 -0.5 93
2019-10-26 03:00:00 7.7 0 Calma 4 Sudoeste 0 956.1 -0.2 92
2019-10-26 02:00:00 8.2 0 Calma 2 Este 0 956.3 0.2 91
2019-10-26 01:00:00 9.1 0 Calma 4 Sudeste 0 956.3 0.4 91
2019-10-26 00:00:00 9.9 0 Calma 5 Sudoeste 0 956.3 0.7 89
2019-10-25 23:00:00 11.2 0 Calma 5 Oeste 0 956.1 1 86
2019-10-25 22:00:00 13.3 0 Calma 11 Norte 0 955.9 1.2 78
2019-10-25 21:00:00 15.5 4 Este 18 Sur 0 955.6 1 66
2019-10-25 20:00:00 17.3 14 Sur 17 Sur 0 955.1 0.4 65
2019-10-25 19:00:00 24.2 0 Calma 4 Noroeste 0 954.7 -0.4 39
2019-10-25 18:00:00 24.7 2 Noroeste 8 Noroeste 0 954.6 -1.1 33
2019-10-25 17:00:00 25.2 3 Sudeste 8 Este 0 954.7 -1.8 36
2019-10-25 16:00:00 24.5 0 Calma 9 Sudeste 0 955.1 -2.3 37
2019-10-25 15:00:00 22.5 2 Este 8 Este 0 955.7 -2.2 41
2019-10-25 14:00:00 20.3 2 Sudeste 9 Este 0 956.5 -1.8 48
2019-10-25 13:00:00 17.4 0 Calma 5 Sudeste 0 957.4 -0.8 54
2019-10-25 12:00:00 14.5 0 Calma 2 Este 0 957.9 0.1 70
2019-10-25 11:00:00 11.3 0 Calma 2 Este 0 958.3 0.7 81
2019-10-25 10:00:00 7.7 0 Calma 11 Sudeste 0 958.2 0.8 95
2019-10-25 09:00:00 4.2 0 Calma 4 Sur 0 957.8 0.6 96
2019-10-25 08:00:00 4 -- -- -- -- 0 957.6 0.2 96
2019-10-25 07:00:00 4.5 0 Calma 4 Sudoeste 0 957.4 -0.1 96
2019-10-25 06:00:00 4.9 0 Calma 4 Sur 0 957.2 -0.3 96
2019-10-25 05:00:00 5.1 2 Noroeste 5 Noroeste 0 957.4 -0.4 96
2019-10-25 04:00:00 5.8 0 Calma 5 Sudoeste 0 957.5 -0.4 95
2019-10-25 03:00:00 6.6 0 Calma 4 Este 0 957.5 -0.3 94
2019-10-25 02:00:00 7 5 Sudeste 11 Sur 0 957.8 0.2 93
2019-10-25 01:00:00 8 0 Calma 5 Oeste 0 957.9 0.8 92
2019-10-25 00:00:00 9 4 Sur 11 Oeste 0 957.8 1.5 89
2019-10-24 23:00:00 9.9 3 Sudoeste 8 Sudoeste 0 957.6 2 84
2019-10-24 22:00:00 11.9 3 Sudoeste 22 Sudoeste 0 957.1 2.3 74
2019-10-24 21:00:00 12.4 11 Sudoeste 17 Sudoeste 0 956.3 1.9 74
2019-10-24 20:00:00 14.2 14 Oeste 24 Sudoeste 0 955.6 1.2 66
2019-10-24 19:00:00 17.1 9 Noroeste 17 Norte 0 954.8 0.4 55
2019-10-24 18:00:00 18.3 7 Noroeste 18 Noroeste 0 954.4 -0.1 49
2019-10-24 17:00:00 18.1 12 Noroeste 26 Oeste 0 954.4 -0.6 46
2019-10-24 16:00:00 17.9 9 Oeste 18 Oeste 0 954.4 -0.9 53
2019-10-24 15:00:00 16.2 6 Noroeste 17 Norte 0 954.5 -1 58
2019-10-24 14:00:00 14.9 7 Oeste 15 Oeste 0 955 -0.1 62
2019-10-24 13:00:00 14.2 6 Norte 17 Norte 0 955.3 1.4 68
2019-10-24 12:00:00 12.8 5 Oeste 18 Sudoeste 0 955.5 2.8 79
2019-10-24 11:00:00 11.2 9 Oeste 17 Sudoeste 0 955.1 2.9 87
2019-10-24 10:00:00 10.4 6 Oeste 9 Oeste 0 953.9 2.4 93
2019-10-24 09:00:00 10 5 Sudoeste 17 Sudoeste 0 952.7 2 94
2019-10-24 08:00:00 10 6 Sudoeste 18 Oeste 0 952.2 1.7 94
2019-10-24 07:00:00 10.1 10 Oeste 17 Oeste 0 951.5 1.2 92
2019-10-24 06:00:00 10.2 7 Oeste 15 Oeste 0 950.7 0.6 93
2019-10-24 05:00:00 10.4 12 Oeste 18 Oeste 0 950.5 0.7 91
2019-10-24 04:00:00 10.4 9 Oeste 26 Oeste 0 950.3 0.5 93
2019-10-24 03:00:00 10.3 13 Oeste 24 Oeste 0 950.1 0.8 94
2019-10-24 02:00:00 10.3 11 Oeste 22 Sudoeste 0 949.8 1.3 95
2019-10-24 01:00:00 10.1 3 Oeste 15 Sudoeste 0.1 949.8 1.9 94
2019-10-24 00:00:00 10.3 13 Sudoeste 21 Sudoeste 0 949.3 2.1 93
2019-10-23 23:00:00 10.5 11 Sudoeste 24 Sudoeste 0 948.5 1.8 93
2019-10-23 22:00:00 10.6 11 Oeste 24 Oeste 0.2 947.9 1.6 93
2019-10-23 21:00:00 10.7 15 Oeste 26 Oeste 0.7 947.2 1.3 92
2019-10-23 20:00:00 10.4 0 Calma 11 Noroeste 0.4 946.7 1.5 88
2019-10-23 19:00:00 10.4 3 Sur 30 Oeste 0.6 946.3 1.3 89
2019-10-23 18:00:00 11.9 7 Oeste 39 Oeste 0.4 945.9 0.6 75
2019-10-23 17:00:00 13.4 26 Oeste 37 Oeste 0 945.2 -0.7 64
2019-10-23 16:00:00 13.5 6 Sudoeste 17 Noroeste 0 945 -1 67
2019-10-23 15:00:00 12.2 5 Oeste 15 Noroeste 1.1 945.3 -0.9 78
2019-10-23 14:00:00 10.7 7 Noroeste 30 Noroeste 0 945.9 0 81
2019-10-23 13:00:00 13.2 14 Oeste 28 Oeste 0 946 0.4 65
2019-10-23 12:00:00 12.8 8 Oeste 21 Sudoeste 0 946.2 1.1 72
2019-10-23 11:00:00 11.1 2 Oeste 13 Este 0 945.9 1 83
2019-10-23 10:00:00 8.6 2 Noroeste 15 Sur 0 945.6 0.8 94
2019-10-23 09:00:00 7 5 Sudeste 15 Sur 0 945.1 0.5 95
2019-10-23 08:00:00 7.7 8 Sur 13 Sur 0 944.9 0.5 94
2019-10-23 07:00:00 9.2 4 Sur 22 Sudoeste 0 944.8 0.3 91
2019-10-23 06:00:00 8.6 7 Sur 11 Sudoeste 0 944.6 0 94
2019-10-23 05:00:00 8.8 0 Calma 8 Sur 0 944.4 -0.3 95
2019-10-23 04:00:00 8.4 4 Sudoeste 8 Sudoeste 0 944.5 -0.6 96
2019-10-23 03:00:00 8.4 3 Sudeste 8 Sur 0 944.6 -0.8 96
2019-10-23 02:00:00 8.8 0 Calma 8 Oeste 0 944.7 -0.8 94
2019-10-23 01:00:00 9.6 0 Calma 4 Norte 0 945.1 -0.5 93
2019-10-23 00:00:00 9.4 0 Calma 15 Este 0.4 945.4 0.4 93
2019-10-22 23:00:00 9.4 13 Sudeste 18 Sudeste 0.7 945.5 1.8 91
2019-10-22 22:00:00 9.5 9 Este 22 Oeste 2 945.6 2.5 90
2019-10-22 21:00:00 9.8 14 Oeste 26 Norte 2.1 945 2.5 87
2019-10-22 20:00:00 11.5 7 Norte 26 Este 0.4 943.7 1.3 80
2019-10-22 19:00:00 12.6 19 Este 32 Este 0 943.1 0.7 68
2019-10-22 18:00:00 15.6 10 Oeste 32 Oeste 0 942.5 -0.4 50
2019-10-22 17:00:00 16.7 21 Oeste 33 Oeste 0 942.4 -1.5 47
2019-10-22 16:00:00 17.6 15 Noroeste 32 Oeste 0 942.4 -2.5 43
2019-10-22 15:00:00 16.8 12 Noroeste 26 Sudoeste 0 942.9 -2.8 49
2019-10-22 14:00:00 16.8 11 Sudoeste 24 Oeste 0 943.9 -2.3 52
2019-10-22 13:00:00 14.9 3 Sudoeste 9 Sudoeste 0 944.9 -1.5 61
2019-10-22 12:00:00 12.5 0 Calma 8 Este 0 945.7 -0.2 71
2019-10-22 11:00:00 10 0 Calma 5 Norte 0 946.2 0.2 84
2019-10-22 10:00:00 9.2 0 Calma 11 Sur 0 946.4 0.2 89
2019-10-22 09:00:00 7.7 6 Sudoeste 11 Sudoeste 0 945.9 -0.6 93
2019-10-22 08:00:00 8.1 5 Oeste 8 Oeste 0 946 -0.7 92
2019-10-22 07:00:00 8.3 2 Sur 5 Sur 0 946.2 -1.2 92
2019-10-22 06:00:00 8.3 3 Norte 11 Sudoeste 0 946.5 -1.9 90
2019-10-22 05:00:00 8.5 3 Sudoeste 8 Sur 0 946.7 -2.4 89
2019-10-22 04:00:00 8.4 0 Calma 5 Sudeste 0 947.4 -1.6 89
2019-10-22 03:00:00 8.7 3 Sudoeste 8 Sudoeste 0 948.4 -1 87
2019-10-22 02:00:00 8.7 0 Calma 8 Este 0 949.1 -0.5 87
2019-10-22 01:00:00 8.1 0 Calma 8 Sur 0 949 -0.5 87
2019-10-22 00:00:00 9.1 0 Calma 4 Sudoeste 0 949.4 -0.1 84
2019-10-21 23:00:00 10.9 0 Calma 11 Sudeste 0 949.6 0.3 74
2019-10-21 22:00:00 11.7 9 Sudoeste 17 Sur 0 949.5 0.5 71
2019-10-21 21:00:00 13.6 5 Sudoeste 24 Sur 0 949.5 0.7 62
2019-10-21 20:00:00 14.5 6 Sudoeste 17 Sudoeste 0 949.3 0.4 61
2019-10-21 19:00:00 17.2 6 Oeste 15 Oeste 0 949 -0.1 46
2019-10-21 18:00:00 18.2 14 Oeste 21 Oeste 0 948.8 -0.9 41
2019-10-21 17:00:00 18.8 6 Oeste 22 Oeste 0 948.9 -1.6 39
2019-10-21 16:00:00 18.5 5 Oeste 21 Oeste 0 949.1 -2.3 40
2019-10-21 15:00:00 17.8 5 Oeste 21 Oeste 0 949.7 -2.1 41
2019-10-21 14:00:00 16.5 3 Noroeste 13 Sur 0 950.5 -1.4 49
2019-10-21 13:00:00 15 0 Calma 5 Oeste 0 951.4 -0.5 58
2019-10-21 12:00:00 12 0 Calma 5 Noroeste 0 951.8 0.5 70
2019-10-21 11:00:00 9.9 0 Calma 5 Noroeste 0 951.9 1 81
2019-10-21 10:00:00 6.6 3 Sudeste 8 Sudeste 0 951.9 1.2 94
2019-10-21 09:00:00 3.3 3 Oeste 8 Oeste 0 951.3 0.8 97
2019-10-21 08:00:00 3.5 5 Sudoeste 5 Sudoeste 0 950.9 0.3 96
2019-10-21 07:00:00 3.7 0 Calma 5 Sudoeste 0 950.7 -0.1 95
2019-10-21 06:00:00 3.9 0 Calma 5 Sudoeste 0 950.5 -0.4 95
2019-10-21 05:00:00 4.5 3 Sur 5 Sur 0 950.6 -0.2 95
2019-10-21 04:00:00 4.8 0 Calma 4 Sur 0 950.8 0.1 95
2019-10-21 03:00:00 5.6 0 Calma 8 Sudeste 0 950.9 0.3 95
2019-10-21 02:00:00 5.9 3 Sudeste 8 Sudeste 0 950.8 0.2 93
2019-10-21 01:00:00 6.8 3 Sudoeste 5 Sudoeste 0 950.7 0.7 93
2019-10-21 00:00:00 7.1 4 Sudoeste 15 Sudeste 0 950.6 0.9 90
2019-10-20 23:00:00 8.6 0 Calma 5 Sudoeste 0 950.6 1.3 84
2019-10-20 22:00:00 10.1 4 Sur 15 Sur 0 950 1.5 78
2019-10-20 21:00:00 10.5 3 Sudoeste 21 Oeste 0 949.7 1.5 76
2019-10-20 20:00:00 12 14 Oeste 18 Oeste 0 949.3 1.6 71
2019-10-20 19:00:00 15.1 14 Oeste 30 Oeste 0 948.5 1 52
2019-10-20 18:00:00 16.3 17 Oeste 33 Oeste 0 948.2 0.8 48
2019-10-20 17:00:00 16.8 21 Oeste 30 Oeste 0 947.7 0.2 51
2019-10-20 16:00:00 16.2 17 Oeste 33 Oeste 0 947.5 0 54
2019-10-20 15:00:00 15.9 15 Noroeste 32 Oeste 0 947.4 -0.3 59
2019-10-20 14:00:00 14.9 16 Oeste 26 Norte 0 947.5 0.1 60
2019-10-20 13:00:00 15.4 16 Noroeste 26 Noroeste 0 947.5 0.9 61
2019-10-20 12:00:00 13.6 14 Oeste 24 Oeste 0 947.7 2 72
2019-10-20 11:00:00 11.9 5 Sudoeste 21 Oeste 0 947.4 1.7 84
2019-10-20 10:00:00 11.5 9 Sudoeste 15 Sudoeste 0 946.6 1.1 90
2019-10-20 09:00:00 11 3 Norte 18 Sudeste 0 945.7 0 91
2019-10-20 08:00:00 11.2 8 Sur 18 Sur 0.2 945.7 -0.3 89
2019-10-20 07:00:00 11.7 4 Sudeste 17 Sur 0.5 945.5 0.8 90
2019-10-20 06:00:00 12.1 6 Sudeste 17 Sudoeste 0.4 945.7 1.3 87
2019-10-20 05:00:00 12.8 6 Sur 24 Oeste 0.5 946 2.5 93
2019-10-20 04:00:00 12.9 21 Oeste 42 Oeste 4 944.7 0.7 94
2019-10-20 03:00:00 14.5 25 Oeste 45 Oeste 1.9 944.4 -0.2 91
2019-10-20 02:00:00 17.5 11 Este 30 Sur 0.1 943.5 -1.1 75
2019-10-20 01:00:00 18.5 14 Sur 39 Sudoeste 0.2 944 -0.3 67
2019-10-20 00:00:00 18.1 21 Sudoeste 37 Sudoeste 0 944.6 0.3 66
2019-10-19 23:00:00 16.4 8 Sudoeste 37 Sur 0 944.6 0.7 69
2019-10-19 22:00:00 18.1 17 Sur 30 Sur 0 944.3 0.3 65
2019-10-19 21:00:00 18.9 16 Sudoeste 28 Sur 0 944.3 0 62
2019-10-19 20:00:00 19.2 5 Sur 17 Oeste 0 943.9 -0.7 59
2019-10-19 19:00:00 21.5 13 Oeste 30 Oeste 0 944 -1.2 51
2019-10-19 18:00:00 22.3 17 Oeste 26 Oeste 0 944.3 -1.3 48
2019-10-19 17:00:00 22.8 19 Oeste 30 Oeste 0 944.6 -1.9 47
2019-10-19 16:00:00 23.7 19 Oeste 33 Noroeste 0 945.2 -2.1 45
2019-10-19 15:00:00 23.3 23 Oeste 37 Noroeste 0 945.6 -2.7 50
2019-10-19 14:00:00 22.5 19 Oeste 32 Oeste 0 946.5 -2.2 56
2019-10-19 13:00:00 21 6 Noroeste 15 Noroeste 0 947.3 -1.7 61
2019-10-19 12:00:00 19.2 3 Noroeste 9 Noroeste 0 948.3 -0.4 68
2019-10-19 11:00:00 16.1 0 Calma 5 Norte 0 948.7 0.1 82
2019-10-19 10:00:00 13.9 4 Norte 15 Sur 0 949 0.5 89
2019-10-19 09:00:00 13.3 5 Sudeste 8 Sudeste 0 948.7 0.1 89
2019-10-19 08:00:00 12.6 0 Calma 4 Noroeste 0 948.6 -0.2 91
2019-10-19 07:00:00 12.2 4 Noroeste 8 Noroeste 0 948.5 -1 93
2019-10-19 06:00:00 11.9 2 Sur 4 Sudoeste 0 948.6 -1.4 95
2019-10-19 05:00:00 10.7 0 Calma 4 Sur 0 948.8 -1.6 93
2019-10-19 04:00:00 12 0 Calma 5 Norte 0 949.5 -1.3 93
2019-10-19 03:00:00 13.3 0 Calma 13 Sudoeste 0 950 -1 91
2019-10-19 02:00:00 14.3 7 Sudoeste 11 Sudoeste 0 950.4 -0.6 88
2019-10-19 01:00:00 15.5 0 Calma 17 Sudoeste 0 950.8 0.2 83
2019-10-19 00:00:00 16.9 14 Sudoeste 18 Sudoeste 0 951 0.6 79
2019-10-18 23:00:00 17.5 13 Sudoeste 24 Sudoeste 0 951 0.8 75
2019-10-18 22:00:00 18.3 13 Sudoeste 21 Sudoeste 0 950.6 0.4 70
2019-10-18 21:00:00 18.9 10 Sudoeste 15 Sudoeste 0 950.4 0 67
2019-10-18 20:00:00 20.9 11 Oeste 26 Oeste 0 950.2 -0.5 59
2019-10-18 19:00:00 23.3 17 Oeste 32 Oeste 0 950.2 -1 52
2019-10-18 18:00:00 25.2 19 Oeste 26 Oeste 0 950.4 -1.7 44
2019-10-18 17:00:00 26 14 Oeste 22 Oeste 0 950.7 -2.4 42
2019-10-18 16:00:00 25.7 5 Oeste 18 Oeste 0 951.2 -2.8 38
2019-10-18 15:00:00 23.7 8 Oeste 21 Oeste 0 952.1 -2.3 36
2019-10-18 14:00:00 22.4 2 Sudoeste 11 Sudoeste 0 953.1 -1.8 34
2019-10-18 13:00:00 19.3 2 Noroeste 13 Noroeste 0 954 -0.6 40
2019-10-18 12:00:00 16.4 2 Noroeste 8 Noroeste 0 954.4 0.4 48
2019-10-18 11:00:00 14.1 0 Calma 5 Noroeste 0 954.9 0.9 56
2019-10-18 10:00:00 9.6 0 Calma 2 Oeste 0 954.6 0.8 70
2019-10-18 09:00:00 5.8 0 Calma 2 Sur 0 954 0.4 81
2019-10-18 08:00:00 5.9 0 Calma 2 Oeste 0 954 0.1 82
2019-10-18 07:00:00 6.4 0 Calma 5 Sudoeste 0 953.8 -0.5 79
2019-10-18 06:00:00 7.6 4 Sudoeste 11 Sudoeste 0 953.6 -1 76
2019-10-18 05:00:00 7.3 4 Sudoeste 5 Sudoeste 0 953.9 -0.8 76
2019-10-18 04:00:00 8.1 0 Calma 4 Sur 0 954.3 -0.7 71
2019-10-18 03:00:00 8.7 0 Calma 2 Sudoeste 0 954.6 -0.2 68
2019-10-18 02:00:00 9.1 0 Calma 4 Oeste 0 954.7 0.2 67
2019-10-18 01:00:00 11.1 0 Calma 4 Oeste 0 955 1 62
2019-10-18 00:00:00 13 0 Calma 11 Sudoeste 0 954.8 1.5 54
2019-10-17 23:00:00 14.6 9 Sudoeste 22 Sudoeste 0 954.5 2 48
2019-10-17 22:00:00 15.9 11 Sudoeste 18 Oeste 0 954 1.8 45
2019-10-17 21:00:00 17 11 Oeste 21 Sudoeste 0 953.3 1.2 42
2019-10-17 20:00:00 19.3 9 Oeste 18 Sudoeste 0 952.5 0.1 38
2019-10-17 19:00:00 23.1 14 Oeste 22 Oeste 0 952.2 -0.7 29
2019-10-17 18:00:00 24.4 13 Oeste 21 Sudoeste 0 952.1 -1.2 25
2019-10-17 17:00:00 24.1 9 Oeste 18 Oeste 0 952.4 -1.8 25
2019-10-17 16:00:00 23.6 5 Oeste 18 Oeste 0 952.9 -2.1 26
2019-10-17 15:00:00 22.3 4 Noroeste 17 Noroeste 0 953.3 -- 27
2019-10-17 14:00:00 21.4 5 Oeste 15 Oeste 0 954.2 -1.4 29
2019-10-17 13:00:00 18.9 0 Calma -- -- -- 955 -0.2 35
2019-10-17 12:00:00 -- 0 Calma 11 Oeste 0 -- -- --
2019-10-17 11:00:00 11.7 3 Oeste 9 Noroeste 0 955.6 1.5 56
2019-10-17 10:00:00 7.6 3 Oeste 5 Oeste 0 955.2 1.5 70
2019-10-17 09:00:00 3.9 0 Calma 5 Sur 0 954.4 1 79
2019-10-17 08:00:00 3.8 0 Calma 4 Oeste 0 954.1 0.3 77
2019-10-17 07:00:00 4.5 0 Calma 8 Sudoeste 0 953.7 -0.3 75
2019-10-17 06:00:00 4.7 5 Sudoeste 8 Sudoeste 0 953.4 -0.7 74
2019-10-17 05:00:00 5 4 Oeste 5 Oeste 0 953.8 0 73
2019-10-17 04:00:00 6.1 0 Calma 8 Sudoeste 0 954 -0.1 69
2019-10-17 03:00:00 7 4 Sudoeste 8 Sudoeste 0 954.1 -0.3 65
2019-10-17 02:00:00 8 0 Calma 5 Sur 0 953.8 -0.1 64
2019-10-17 01:00:00 9.5 2 Este 4 Este 0 954.1 0.7 57
2019-10-17 00:00:00 10.5 4 Norte 15 Sudoeste 0 954.4 1.7 58
2019-10-16 23:00:00 12.4 12 Sudoeste 13 Sudoeste 0 953.9 1.9 41
2019-10-16 22:00:00 14.2 3 Sur 17 Sur 0 953.4 1.7 37
2019-10-16 21:00:00 15.6 9 Sudoeste 17 Sudoeste 0 952.7 0.9 37
2019-10-16 20:00:00 -- 8 Sudoeste 13 Sudoeste 0 952 -0.3 --
2019-10-16 19:00:00 22.8 4 Sudoeste 13 Sur 0 951.7 -1.2 23
2019-10-16 18:00:00 23.9 4 Sudoeste 17 Sudoeste 0 951.8 -1.8 17
2019-10-16 17:00:00 23.9 4 Oeste 15 Oeste 0 952.3 -2.3 13
2019-10-16 16:00:00 23.3 8 Oeste 17 Oeste 0 952.9 -2.5 15
2019-10-16 15:00:00 21.9 6 Noroeste 15 Oeste 0 953.6 -2.5 14
2019-10-16 14:00:00 20.7 0 Calma 8 Sudeste 0 954.6 -1.7 29
2019-10-16 13:00:00 17.3 2 Oeste 8 Norte 0 955.4 -0.8 43
2019-10-16 12:00:00 14.7 0 Calma 8 Nordeste 0 956.1 0.6 50
2019-10-16 11:00:00 10.9 0 Calma 5 Este 0 956.3 1.1 63
2019-10-16 10:00:00 6.4 0 Calma 8 Sur 0 956.2 1 80
2019-10-16 09:00:00 3.3 0 Calma 8 Sudoeste 0 955.5 0.1 88
2019-10-16 08:00:00 3 0 Calma 4 Sur 0 955.2 -0.2 87
2019-10-16 07:00:00 3.8 0 Calma 5 Oeste 0 955.2 -0.3 86
2019-10-16 06:00:00 4.6 0 Calma 8 Sudoeste 0 955.4 -0.4 81
2019-10-16 05:00:00 4.7 5 Oeste 8 Sudoeste 0 955.4 -0.4 81
2019-10-16 04:00:00 5.2 5 Sur 8 Sur 0 955.5 -0.6 79
2019-10-16 03:00:00 6.2 3 Oeste 8 Sur 0 955.8 -0.1 77
2019-10-16 02:00:00 7.1 3 Sur 5 Sur 0 955.8 0.1 73
2019-10-16 01:00:00 8.9 2 Sudoeste 5 Sudoeste 0 956.1 0.7 69
2019-10-16 00:00:00 9.7 0 Calma 5 Oeste 0 955.9 1 66
2019-10-15 23:00:00 11.3 5 Sudoeste 18 Oeste 0 955.7 1.3 61
2019-10-15 22:00:00 12.4 6 Sudoeste 18 Sudoeste 0 955.4 1.8 59
2019-10-15 21:00:00 14.1 12 Sudoeste 18 Sudoeste 0 954.9 1.6 54
2019-10-15 20:00:00 15.6 10 Oeste 26 Oeste 0 954.4 1 48
2019-10-15 19:00:00 18.8 18 Oeste 26 Oeste 0 953.6 -0.1 39
2019-10-15 18:00:00 20.2 13 Oeste 28 Oeste 0 953.3 -0.8 32
2019-10-15 17:00:00 20.2 12 Sudoeste 21 Sudoeste 0 953.4 -1.5 33
2019-10-15 16:00:00 20.8 3 Noroeste 21 Sur 0 953.7 -1.7 29
2019-10-15 15:00:00 19.7 4 Sudoeste 21 Sudoeste 0 954.1 -1.8 35
2019-10-15 14:00:00 18.4 4 Oeste 22 Oeste 0 954.9 -1.1 40
2019-10-15 13:00:00 16.8 7 Oeste 18 Sudoeste 0 955.4 -0.1 46
2019-10-15 12:00:00 15.6 2 Noroeste 13 Noroeste 0 955.9 1 54
2019-10-15 11:00:00 12.4 4 Noroeste -- -- -- 956 1.4 74
2019-10-15 10:00:00 9.7 2 Noroeste 11 Noroeste 0 955.5 1.1 92
2019-10-15 09:00:00 7.3 3 Sudoeste 9 Sur 0 954.9 0.4 94
2019-10-15 08:00:00 7 0 Calma 5 Oeste 0 954.6 0 94
2019-10-15 07:00:00 8.6 0 Calma 9 Sur 0 954.4 -0.2 95
2019-10-15 06:00:00 9 2 Sudoeste 15 Sudoeste 0 954.5 -0.3 94
2019-10-15 05:00:00 9.9 6 Sudoeste 8 Sudoeste 0 954.6 0.2 92
2019-10-15 04:00:00 11.2 7 Oeste 15 Noroeste 0 954.6 0.5 91
2019-10-15 03:00:00 12.6 12 Noroeste 21 Oeste 0 954.8 1.2 89
2019-10-15 02:00:00 13.1 8 Oeste 24 Oeste 0 954.4 0.8 90
2019-10-15 01:00:00 13.8 21 Oeste 33 Oeste 0 954.1 0.7 88
2019-10-15 00:00:00 15.3 13 Oeste 22 Oeste 0 953.6 1.1 70
2019-10-14 23:00:00 15.8 6 Oeste 24 Oeste 0 953.6 1.9 65
2019-10-14 22:00:00 15.8 10 Oeste 30 Oeste 0 953.4 2.3 61
2019-10-14 21:00:00 16.8 22 Oeste 37 Oeste 0 952.5 1.7 61
2019-10-14 20:00:00 17.9 16 Oeste 30 Oeste 0 951.7 1.3 62
2019-10-14 19:00:00 19.1 21 Oeste 45 Oeste 0 951.1 0.9 62
2019-10-14 18:00:00 20.8 31 Oeste 50 Noroeste 0 950.8 0.2 55
2019-10-14 17:00:00 22.5 26 Oeste 48 Oeste 0 950.4 -0.4 48
2019-10-14 16:00:00 22.3 26 Oeste 41 Oeste 0 950.2 -1 46
2019-10-14 15:00:00 22.2 22 Oeste 37 Oeste 0 950.6 -0.5 48
2019-10-14 14:00:00 22.1 23 Oeste 37 Oeste 0 950.8 -0.2 52
2019-10-14 13:00:00 21.5 23 Oeste 37 Oeste 0 951.2 0.9 55
2019-10-14 12:00:00 21.5 24 Oeste 37 Oeste 0 951.1 1.7 56
2019-10-14 11:00:00 20.9 9 Oeste 17 Oeste 0 951 1.5 63
2019-10-14 10:00:00 19.7 12 Oeste 26 Sudoeste 0 950.3 1.7 66
2019-10-14 09:00:00 19.7 4 Oeste 18 Noroeste 0 949.4 1.2 64
2019-10-14 08:00:00 21.5 7 Norte 26 Sudoeste 0 949.5 1.6 50
2019-10-14 07:00:00 23.5 19 Sur 32 Sur 0 948.6 0.8 40
2019-10-14 06:00:00 23.2 12 Sur 30 Sur 0 948.2 0 43
2019-10-14 05:00:00 21.2 25 Oeste 37 Oeste 0 947.9 -0.7 48
2019-10-14 04:00:00 20.2 16 Noroeste 26 Noroeste 0 947.8 -1 40
2019-10-14 03:00:00 18 3 Oeste 13 Noroeste 0 948.2 -0.9 48
2019-10-14 02:00:00 19.5 3 Noroeste 22 Oeste 0 948.6 -0.8 43
2019-10-14 01:00:00 18.1 10 Oeste 15 Oeste 0 948.8 -0.4 47
2019-10-14 00:00:00 18.9 2 Norte 13 Nordeste 0 949.1 -0.3 47